createdAt,value
2019-03-01T00:01:20.277Z,27.30
2019-03-01T00:03:51.849Z,25.17
2019-03-01T00:06:22.445Z,28.83
2019-03-01T00:09:33.918Z,24.82
2019-03-01T00:12:30.983Z,26.02
2019-03-01T00:15:20.194Z,24.92
2019-03-01T00:18:44.660Z,24.25
2019-03-01T00:21:39.646Z,29.77
2019-03-01T00:24:19.419Z,21.35
2019-03-01T00:27:24.211Z,26.17
2019-03-01T00:30:19.951Z,25.35
2019-03-01T00:32:58.952Z,24.98
2019-03-01T00:36:10.229Z,27.42
2019-03-01T00:39:04.936Z,26.85
2019-03-01T00:41:43.176Z,29.40
2019-03-01T00:44:42.580Z,28.12
2019-03-01T00:47:09.912Z,23.32
2019-03-01T00:49:37.123Z,26.05
2019-03-01T00:52:04.375Z,25.30
2019-03-01T00:54:31.574Z,25.25
2019-03-01T00:56:58.648Z,34.30
2019-03-01T00:59:25.753Z,31.82
2019-03-01T01:01:53.153Z,28.05
2019-03-01T01:04:20.244Z,24.05
2019-03-01T01:06:47.506Z,26.97
2019-03-01T01:09:15.477Z,27.25
2019-03-01T01:11:42.494Z,25.30
2019-03-01T01:14:09.575Z,27.75
2019-03-01T01:16:36.551Z,31.85
2019-03-01T01:19:03.534Z,28.60
2019-03-01T01:21:30.795Z,32.05
2019-03-01T01:23:58.129Z,32.65
2019-03-01T01:26:25.228Z,29.52
2019-03-01T01:28:52.192Z,35.63
2019-03-01T01:31:19.351Z,36.30
2019-03-01T01:33:46.334Z,31.73
2019-03-01T01:36:13.732Z,32.85
2019-03-01T01:38:41.339Z,32.20
2019-03-01T01:41:08.641Z,35.83
2019-03-01T01:43:36.128Z,33.67
2019-03-01T01:46:03.377Z,35.17
2019-03-01T01:48:30.431Z,45.55
2019-03-01T01:51:00.160Z,38.70
2019-03-01T01:53:27.419Z,39.15
2019-03-01T01:55:54.458Z,40.58
2019-03-01T01:58:21.923Z,42.25
2019-03-01T02:00:49.263Z,38.25
2019-03-01T02:03:16.211Z,45.25
2019-03-01T02:05:44.642Z,40.12
2019-03-01T02:08:11.639Z,36.25
2019-03-01T02:10:38.810Z,39.73
2019-03-01T02:13:05.903Z,41.95
2019-03-01T02:15:32.883Z,37.80
2019-03-01T02:18:00.128Z,35.35
2019-03-01T02:20:27.253Z,34.58
2019-03-01T02:22:55.066Z,35.60
2019-03-01T02:25:25.171Z,38.65
2019-03-01T02:27:52.608Z,32.83
2019-03-01T02:30:22.021Z,33.88
2019-03-01T02:32:49.844Z,31.73
2019-03-01T02:35:19.048Z,32.30
2019-03-01T02:37:46.189Z,33.75
2019-03-01T02:40:15.943Z,35.98
2019-03-01T02:42:43.317Z,32.75
2019-03-01T02:45:13.056Z,34.35
2019-03-01T02:47:40.216Z,30.57
2019-03-01T02:50:08.276Z,33.23
2019-03-01T02:52:36.314Z,35.28
2019-03-01T02:55:03.803Z,34.73
2019-03-01T02:57:31.117Z,34.27
2019-03-01T02:59:58.529Z,37.98
2019-03-01T03:02:26.026Z,32.55
2019-03-01T03:04:53.811Z,28.00
2019-03-01T03:07:26.584Z,25.37
2019-03-01T03:09:54.045Z,28.15
2019-03-01T03:12:21.177Z,32.38
2019-03-01T03:14:48.217Z,31.30
2019-03-01T03:17:16.008Z,32.90
2019-03-01T03:19:43.078Z,34.35
2019-03-01T03:22:10.135Z,34.92
2019-03-01T03:24:37.163Z,34.98
2019-03-01T03:27:04.220Z,36.28
2019-03-01T03:29:31.421Z,33.23
2019-03-01T03:31:58.718Z,35.13
2019-03-01T03:34:26.091Z,37.65
2019-03-01T03:36:53.295Z,35.68
2019-03-01T03:39:20.503Z,37.40
2019-03-01T03:41:47.733Z,40.20
2019-03-01T03:44:15.513Z,32.53
2019-03-01T03:46:43.857Z,33.88
2019-03-01T03:49:10.920Z,35.80
2019-03-01T03:51:38.308Z,36.45
2019-03-01T03:54:05.306Z,37.35
2019-03-01T03:56:32.275Z,34.60
2019-03-01T03:58:59.572Z,35.03
2019-03-01T04:01:27.272Z,33.73
2019-03-01T04:03:54.894Z,34.13
2019-03-01T04:06:23.115Z,33.70
2019-03-01T04:08:50.257Z,37.05
2019-03-01T04:11:17.442Z,37.78
2019-03-01T04:13:44.776Z,41.18
2019-03-01T04:16:11.777Z,42.90
2019-03-01T04:18:39.432Z,38.38
2019-03-01T04:21:06.591Z,36.23
2019-03-01T04:23:33.865Z,37.70
2019-03-01T04:26:00.981Z,38.30
2019-03-01T04:28:27.965Z,43.13
2019-03-01T04:30:55.318Z,36.33
2019-03-01T04:33:22.330Z,40.23
2019-03-01T04:35:49.430Z,40.20
2019-03-01T04:38:16.670Z,39.58
2019-03-01T04:40:43.709Z,40.33
2019-03-01T04:43:10.730Z,36.08
2019-03-01T04:45:38.148Z,38.48
2019-03-01T04:48:05.257Z,34.15
2019-03-01T04:50:32.207Z,36.90
2019-03-01T04:52:59.210Z,35.78
2019-03-01T04:55:26.326Z,42.75
2019-03-01T04:57:53.348Z,41.65
2019-03-01T05:00:21.881Z,40.17
2019-03-01T05:02:49.078Z,39.80
2019-03-01T05:05:16.634Z,36.33
2019-03-01T05:07:43.875Z,38.60
2019-03-01T05:10:11.219Z,44.45
2019-03-01T05:12:38.638Z,42.27
2019-03-01T05:15:07.805Z,39.27
2019-03-01T05:17:34.771Z,38.55
2019-03-01T05:20:01.900Z,39.80
2019-03-01T05:22:29.250Z,34.40
2019-03-01T05:24:56.326Z,39.98
2019-03-01T05:27:23.656Z,29.82
2019-03-01T05:29:50.998Z,39.05
2019-03-01T05:32:18.798Z,35.55
2019-03-01T05:34:45.856Z,34.75
2019-03-01T05:37:12.915Z,39.35
2019-03-01T05:39:40.142Z,37.48
2019-03-01T05:42:07.487Z,41.42
2019-03-01T05:44:34.823Z,36.80
2019-03-01T05:47:01.821Z,39.25
2019-03-01T05:49:28.931Z,43.63
2019-03-01T05:51:56.035Z,38.58
2019-03-01T05:54:23.384Z,37.85
2019-03-01T05:56:51.030Z,31.77
2019-03-01T05:59:20.751Z,32.88
2019-03-01T06:02:26.699Z,29.55
2019-03-01T06:04:57.536Z,34.70
2019-03-01T06:07:46.379Z,29.48
2019-03-01T06:10:40.356Z,26.73
2019-03-01T06:13:40.724Z,26.65
2019-03-01T06:16:46.277Z,24.23
2019-03-01T06:19:39.823Z,25.20
2019-03-01T06:22:34.741Z,24.32
2019-03-01T06:25:46.449Z,25.10
2019-03-01T06:28:25.395Z,18.95
2019-03-01T06:31:35.206Z,22.00
2019-03-01T06:34:19.856Z,22.00
2019-03-01T06:37:44.383Z,18.67
2019-03-01T06:40:28.020Z,20.90
2019-03-01T06:44:01.628Z,20.48
2019-03-01T06:46:37.572Z,22.97
2019-03-01T06:49:30.474Z,17.90
2019-03-01T06:51:57.580Z,21.65
2019-03-01T06:54:24.751Z,16.95
2019-03-01T06:56:52.044Z,21.25
2019-03-01T06:59:19.160Z,20.32
2019-03-01T07:01:46.759Z,20.15
2019-03-01T07:04:20.605Z,21.45
2019-03-01T07:06:47.863Z,22.20
2019-03-01T07:09:15.511Z,21.87
2019-03-01T07:11:43.377Z,20.85
2019-03-01T07:14:10.873Z,24.87
2019-03-01T07:16:37.984Z,25.45
2019-03-01T07:19:05.558Z,20.20
2019-03-01T07:21:32.655Z,21.17
2019-03-01T07:23:59.732Z,23.02
2019-03-01T07:26:27.404Z,19.95
2019-03-01T07:28:55.271Z,15.32
2019-03-01T07:31:22.958Z,19.00
2019-03-01T07:33:50.386Z,17.67
2019-03-01T07:36:17.581Z,17.37
2019-03-01T07:38:44.723Z,19.65
2019-03-01T07:41:14.801Z,22.25
2019-03-01T07:43:42.282Z,21.68
2019-03-01T07:46:12.142Z,17.40
2019-03-01T07:48:39.499Z,13.58
2019-03-01T07:51:06.537Z,15.53
2019-03-01T07:53:35.650Z,21.23
2019-03-01T07:56:04.005Z,16.73
2019-03-01T07:58:31.717Z,18.37
2019-03-01T08:00:58.827Z,17.12
2019-03-01T08:03:25.803Z,16.65
2019-03-01T08:05:52.810Z,14.45
2019-03-01T08:08:20.615Z,11.57
2019-03-01T08:10:48.111Z,12.03
2019-03-01T08:13:17.582Z,12.95
2019-03-01T08:15:44.963Z,15.23
2019-03-01T08:18:13.002Z,16.32
2019-03-01T08:20:40.010Z,11.50
2019-03-01T08:23:07.168Z,9.50
2019-03-01T08:25:34.485Z,12.33
2019-03-01T08:28:01.799Z,9.35
2019-03-01T08:30:29.121Z,5.25
2019-03-01T08:32:56.200Z,11.85
2019-03-01T08:35:25.328Z,7.45
2019-03-01T08:37:53.510Z,11.70
2019-03-01T08:40:21.480Z,10.20
2019-03-01T08:42:48.861Z,8.68
2019-03-01T08:45:16.100Z,8.35
2019-03-01T08:47:43.470Z,10.15
2019-03-01T08:50:12.775Z,12.28
2019-03-01T08:52:40.473Z,9.78
2019-03-01T08:55:09.946Z,11.15
2019-03-01T08:57:44.064Z,11.50
2019-03-01T09:00:10.650Z,12.65
2019-03-01T09:02:38.453Z,10.55
2019-03-01T09:05:08.919Z,10.60
2019-03-01T09:07:35.864Z,13.50
2019-03-01T09:10:03.524Z,16.27
2019-03-01T09:12:30.925Z,9.25
2019-03-01T09:14:58.363Z,11.05
2019-03-01T09:17:25.525Z,9.33
2019-03-01T09:19:53.141Z,10.78
2019-03-01T09:22:20.303Z,8.55
2019-03-01T09:24:49.535Z,7.35
2019-03-01T09:27:16.634Z,9.28
2019-03-01T09:29:43.817Z,13.62
2019-03-01T09:32:11.137Z,9.75
2019-03-01T09:34:38.132Z,10.08
2019-03-01T09:37:05.245Z,5.00
2019-03-01T09:39:32.735Z,5.35
2019-03-01T09:42:03.229Z,6.33
2019-03-01T09:44:28.942Z,5.20
2019-03-01T09:46:58.440Z,10.98
2019-03-01T09:49:25.272Z,9.35
2019-03-01T09:51:52.402Z,5.53
2019-03-01T09:54:19.499Z,7.65
2019-03-01T09:56:46.751Z,12.60
2019-03-01T09:59:13.806Z,8.65
2019-03-01T10:01:41.155Z,7.17
2019-03-01T10:04:08.474Z,6.60
2019-03-01T10:06:38.421Z,10.20
2019-03-01T10:09:09.800Z,5.53
2019-03-01T10:11:37.452Z,6.75
2019-03-01T10:14:04.793Z,10.93
2019-03-01T10:16:31.791Z,9.83
2019-03-01T10:18:58.837Z,6.37
2019-03-01T10:21:26.667Z,6.15
2019-03-01T10:23:53.942Z,6.87
2019-03-01T10:26:21.044Z,5.90
2019-03-01T10:28:48.450Z,5.78
2019-03-01T10:31:15.791Z,8.60
2019-03-01T10:33:43.009Z,4.37
2019-03-01T10:36:10.489Z,10.85
2019-03-01T10:38:37.638Z,7.50
2019-03-01T10:41:04.870Z,8.83
2019-03-01T10:43:33.219Z,11.00
2019-03-01T10:46:00.767Z,8.68
2019-03-01T10:48:28.286Z,5.17
2019-03-01T10:50:55.407Z,8.58
2019-03-01T10:53:22.469Z,5.75
2019-03-01T10:55:49.576Z,7.90
2019-03-01T10:58:16.901Z,6.83
2019-03-01T11:00:45.363Z,9.13
2019-03-01T11:03:12.383Z,6.78
2019-03-01T11:05:39.859Z,7.37
2019-03-01T11:08:08.216Z,6.72
2019-03-01T11:10:35.943Z,7.40
2019-03-01T11:13:04.561Z,7.72
2019-03-01T11:15:31.636Z,10.32
2019-03-01T11:17:58.860Z,11.57
2019-03-01T11:20:26.570Z,6.62
2019-03-01T11:22:53.701Z,7.05
2019-03-01T11:25:21.540Z,8.03
2019-03-01T11:27:49.048Z,8.53
2019-03-01T11:30:21.266Z,6.03
2019-03-01T11:32:49.285Z,5.50
2019-03-01T11:35:16.716Z,9.18
2019-03-01T11:37:44.671Z,7.62
2019-03-01T11:40:17.076Z,8.03
2019-03-01T11:42:44.367Z,8.48
2019-03-01T11:45:12.810Z,7.97
2019-03-01T11:47:40.241Z,9.30
2019-03-01T11:50:10.246Z,6.08
2019-03-01T11:52:37.611Z,7.58
2019-03-01T11:55:05.071Z,11.93
2019-03-01T11:57:32.148Z,12.55
2019-03-01T11:59:59.676Z,9.80
2019-03-01T12:02:26.675Z,10.40
2019-03-01T12:04:53.719Z,11.78
2019-03-01T12:07:20.848Z,8.75
2019-03-01T12:09:47.813Z,11.28
2019-03-01T12:12:14.918Z,9.23
2019-03-01T12:14:41.926Z,8.88
2019-03-01T12:17:09.236Z,10.65
2019-03-01T12:19:36.414Z,10.70
2019-03-01T12:22:03.664Z,15.08
2019-03-01T12:24:31.110Z,13.22
2019-03-01T12:26:58.648Z,10.43
2019-03-01T12:29:25.799Z,14.15
2019-03-01T12:31:52.882Z,13.13
2019-03-01T12:34:19.999Z,11.90
2019-03-01T12:36:47.322Z,10.20
2019-03-01T12:39:14.490Z,14.63
2019-03-01T12:41:41.559Z,10.45
2019-03-01T12:44:08.874Z,11.63
2019-03-01T12:46:36.023Z,7.40
2019-03-01T12:49:03.246Z,12.98
2019-03-01T12:51:30.759Z,12.58
2019-03-01T12:53:57.905Z,12.45
2019-03-01T12:56:25.077Z,11.33
2019-03-01T12:58:52.459Z,9.63
2019-03-01T13:01:19.473Z,10.10
2019-03-01T13:03:46.740Z,11.15
2019-03-01T13:06:14.083Z,12.80
2019-03-01T13:08:41.666Z,9.83
2019-03-01T13:11:08.764Z,9.00
2019-03-01T13:13:38.318Z,9.60
2019-03-01T13:16:05.643Z,8.53
2019-03-01T13:18:33.103Z,8.95
2019-03-01T13:21:00.769Z,10.75
2019-03-01T13:23:27.918Z,15.10
2019-03-01T13:25:55.344Z,9.05
2019-03-01T13:28:22.492Z,10.68
2019-03-01T13:30:49.658Z,11.05
2019-03-01T13:33:16.967Z,12.88
2019-03-01T13:35:45.000Z,12.45
2019-03-01T13:38:12.362Z,12.70
2019-03-01T13:40:39.564Z,14.53
2019-03-01T13:43:06.799Z,11.45
2019-03-01T13:45:33.847Z,9.45
2019-03-01T13:48:03.142Z,11.43
2019-03-01T13:50:30.139Z,8.18
2019-03-01T13:52:57.952Z,11.78
2019-03-01T13:55:27.549Z,8.00
2019-03-01T13:57:54.622Z,8.50
2019-03-01T14:00:22.248Z,8.20
2019-03-01T14:02:49.993Z,13.40
2019-03-01T14:05:18.639Z,11.43
2019-03-01T14:07:46.118Z,11.88
2019-03-01T14:10:15.188Z,13.65
2019-03-01T14:12:42.675Z,12.53
2019-03-01T14:15:12.314Z,14.58
2019-03-01T14:17:39.624Z,10.20
2019-03-01T14:20:09.623Z,14.80
2019-03-01T14:22:36.992Z,8.20
2019-03-01T14:25:05.261Z,9.40
2019-03-01T14:27:33.024Z,15.53
2019-03-01T14:30:00.273Z,12.20
2019-03-01T14:32:27.693Z,9.83
2019-03-01T14:34:54.843Z,8.98
2019-03-01T14:37:21.995Z,11.73
2019-03-01T14:39:49.554Z,9.95
2019-03-01T14:42:17.014Z,12.93
2019-03-01T14:44:44.024Z,11.83
2019-03-01T14:47:13.079Z,11.30
2019-03-01T14:49:39.965Z,12.28
2019-03-01T14:52:06.975Z,14.70
2019-03-01T14:54:34.082Z,15.30
2019-03-01T14:57:10.696Z,11.25
2019-03-01T14:59:49.258Z,15.43
2019-03-01T15:02:50.543Z,17.75
2019-03-01T15:05:19.806Z,13.48
2019-03-01T15:07:46.720Z,14.58
2019-03-01T15:10:14.058Z,14.73
2019-03-01T15:12:41.303Z,9.50
2019-03-01T15:15:09.706Z,14.93
2019-03-01T15:17:37.236Z,9.95
2019-03-01T15:20:07.047Z,15.90
2019-03-01T15:22:34.227Z,10.78
2019-03-01T15:25:01.351Z,13.32
2019-03-01T15:27:28.429Z,9.70
2019-03-01T15:29:56.072Z,12.65
2019-03-01T15:32:23.291Z,15.95
2019-03-01T15:34:50.397Z,11.22
2019-03-01T15:37:17.565Z,11.80
2019-03-01T15:39:45.344Z,10.28
2019-03-01T15:42:14.264Z,13.53
2019-03-01T15:44:41.873Z,9.88
2019-03-01T15:47:09.001Z,16.23
2019-03-01T15:49:36.139Z,15.28
2019-03-01T15:52:03.769Z,13.53
2019-03-01T15:54:32.455Z,13.00
2019-03-01T15:57:01.090Z,14.65
2019-03-01T15:59:28.112Z,15.03
2019-03-01T16:01:55.355Z,13.30
2019-03-01T16:04:22.822Z,17.10
2019-03-01T16:06:55.206Z,10.85
2019-03-01T16:09:21.812Z,10.13
2019-03-01T16:11:47.764Z,13.18
2019-03-01T16:14:14.786Z,16.48
2019-03-01T16:16:41.834Z,16.32
2019-03-01T16:19:11.122Z,12.53
2019-03-01T16:21:39.784Z,14.13
2019-03-01T16:24:08.153Z,14.75
2019-03-01T16:26:36.405Z,12.37
2019-03-01T16:29:07.222Z,15.00
2019-03-01T16:31:34.199Z,13.62
2019-03-01T16:34:04.356Z,18.82
2019-03-01T16:36:38.299Z,9.73
2019-03-01T16:39:09.531Z,18.10
2019-03-01T16:41:39.674Z,11.73
2019-03-01T16:44:18.945Z,9.45
2019-03-01T16:46:46.679Z,10.85
2019-03-01T16:49:14.451Z,12.70
2019-03-01T16:51:42.261Z,17.30
2019-03-01T16:54:15.419Z,11.88
2019-03-01T16:56:40.744Z,11.83
2019-03-01T16:59:08.411Z,10.65
2019-03-01T17:01:36.561Z,17.67
2019-03-01T17:04:04.297Z,12.68
2019-03-01T17:06:33.551Z,13.80
2019-03-01T17:09:01.560Z,9.70
2019-03-01T17:11:31.558Z,15.35
2019-03-01T17:14:02.462Z,11.63
2019-03-01T17:16:29.865Z,13.83
2019-03-01T17:18:57.825Z,13.15
2019-03-01T17:21:25.625Z,9.75
2019-03-01T17:23:54.684Z,14.55
2019-03-01T17:26:26.310Z,16.97
2019-03-01T17:28:52.575Z,14.47
2019-03-01T17:31:23.242Z,12.68
2019-03-01T17:33:50.062Z,13.25
2019-03-01T17:36:18.050Z,10.38
2019-03-01T17:38:46.198Z,16.12
2019-03-01T17:41:13.867Z,12.18
2019-03-01T17:43:40.871Z,13.10
2019-03-01T17:46:08.305Z,12.28
2019-03-01T17:48:35.403Z,12.70
2019-03-01T17:51:02.440Z,13.90
2019-03-01T17:53:29.447Z,11.75
2019-03-01T17:55:56.407Z,15.83
2019-03-01T17:58:23.399Z,11.60
2019-03-01T18:00:50.348Z,11.60
2019-03-01T18:03:17.350Z,18.10
2019-03-01T18:05:44.434Z,17.67
2019-03-01T18:08:11.511Z,13.60
2019-03-01T18:10:38.718Z,13.68
2019-03-01T18:13:06.167Z,13.13
2019-03-01T18:15:33.139Z,12.68
2019-03-01T18:18:00.112Z,12.13
2019-03-01T18:20:27.614Z,12.70
2019-03-01T18:22:54.694Z,13.70
2019-03-01T18:25:22.763Z,10.80
2019-03-01T18:27:53.082Z,11.05
2019-03-01T18:30:21.004Z,14.38
2019-03-01T18:32:48.087Z,14.47
2019-03-01T18:35:15.382Z,12.30
2019-03-01T18:37:42.520Z,10.23
2019-03-01T18:40:09.955Z,12.50
2019-03-01T18:42:38.116Z,15.72
2019-03-01T18:45:08.234Z,14.15
2019-03-01T18:47:35.532Z,13.72
2019-03-01T18:50:04.388Z,9.73
2019-03-01T18:52:32.489Z,11.53
2019-03-01T18:54:59.467Z,10.40
2019-03-01T18:57:26.814Z,12.00
2019-03-01T18:59:56.482Z,14.35
2019-03-01T19:02:24.391Z,13.65
2019-03-01T19:04:51.812Z,12.70
2019-03-01T19:07:18.785Z,9.30
2019-03-01T19:09:48.751Z,13.13
2019-03-01T19:12:15.021Z,13.93
2019-03-01T19:14:42.740Z,10.40
2019-03-01T19:17:10.265Z,12.45
2019-03-01T19:19:37.326Z,9.38
2019-03-01T19:22:04.664Z,13.38
2019-03-01T19:24:32.017Z,14.95
2019-03-01T19:26:59.184Z,14.83
2019-03-01T19:29:26.463Z,14.05
2019-03-01T19:31:53.668Z,14.93
2019-03-01T19:34:20.842Z,16.17
2019-03-01T19:36:50.407Z,17.15
2019-03-01T19:39:21.130Z,14.18
2019-03-01T19:41:48.433Z,13.98
2019-03-01T19:44:15.437Z,16.65
2019-03-01T19:46:42.689Z,16.45
2019-03-01T19:49:12.854Z,18.40
2019-03-01T19:51:38.732Z,21.20
2019-03-01T19:54:08.282Z,9.30
2019-03-01T19:56:35.528Z,19.75
2019-03-01T19:59:03.009Z,18.57
2019-03-01T20:01:30.079Z,11.22
2019-03-01T20:03:57.209Z,16.62
2019-03-01T20:06:24.294Z,12.03
2019-03-01T20:08:51.372Z,13.95
2019-03-01T20:11:18.623Z,16.80
2019-03-01T20:13:45.761Z,16.25
2019-03-01T20:16:13.033Z,16.50
2019-03-01T20:18:41.768Z,19.15
2019-03-01T20:21:10.485Z,13.53
2019-03-01T20:23:38.087Z,14.78
2019-03-01T20:26:05.115Z,12.90
2019-03-01T20:28:32.284Z,14.38
2019-03-01T20:31:01.554Z,14.65
2019-03-01T20:33:28.183Z,10.18
2019-03-01T20:35:55.470Z,18.60
2019-03-01T20:38:22.515Z,14.53
2019-03-01T20:40:49.599Z,13.83
2019-03-01T20:43:16.659Z,8.00
2019-03-01T20:45:43.782Z,14.40
2019-03-01T20:48:10.958Z,12.28
2019-03-01T20:50:38.051Z,11.20
2019-03-01T20:53:05.325Z,12.55
2019-03-01T20:55:33.113Z,14.60
2019-03-01T20:58:03.102Z,12.33
2019-03-01T21:00:30.458Z,12.37
2019-03-01T21:02:57.707Z,12.35
2019-03-01T21:05:28.791Z,17.70
2019-03-01T21:07:54.892Z,10.93
2019-03-01T21:10:23.859Z,9.83
2019-03-01T21:12:51.635Z,14.83
2019-03-01T21:15:21.380Z,17.15
2019-03-01T21:17:48.901Z,11.78
2019-03-01T21:20:19.590Z,10.90
2019-03-01T21:22:46.936Z,15.30
2019-03-01T21:25:14.250Z,12.43
2019-03-01T21:27:41.332Z,15.28
2019-03-01T21:30:15.051Z,10.72
2019-03-01T21:32:42.116Z,14.70
2019-03-01T21:35:10.475Z,9.68
2019-03-01T21:37:39.371Z,11.57
2019-03-01T21:40:07.290Z,9.45
2019-03-01T21:42:34.865Z,9.95
2019-03-01T21:45:02.529Z,13.70
2019-03-01T21:47:29.871Z,9.95
2019-03-01T21:49:59.961Z,12.82
2019-03-01T21:52:29.589Z,9.65
2019-03-01T21:54:55.760Z,11.38
2019-03-01T21:57:22.920Z,10.30
2019-03-01T21:59:52.486Z,9.55
2019-03-01T22:02:19.268Z,12.18
2019-03-01T22:04:46.345Z,12.63
2019-03-01T22:07:13.344Z,9.78
2019-03-01T22:09:40.562Z,10.70
2019-03-01T22:12:07.787Z,8.68
2019-03-01T22:14:34.867Z,13.75
2019-03-01T22:17:01.898Z,9.40
2019-03-01T22:19:30.569Z,8.08
2019-03-01T22:21:58.764Z,16.17
2019-03-01T22:24:27.382Z,11.83
2019-03-01T22:26:54.562Z,10.80
2019-03-01T22:29:21.887Z,7.70
2019-03-01T22:31:50.130Z,13.40
2019-03-01T22:34:17.217Z,12.70
2019-03-01T22:36:44.835Z,8.43
2019-03-01T22:39:13.648Z,11.85
2019-03-01T22:41:41.105Z,10.03
2019-03-01T22:44:08.234Z,16.95
2019-03-01T22:46:35.484Z,11.00
2019-03-01T22:49:02.819Z,8.95
2019-03-01T22:51:29.849Z,9.48
2019-03-01T22:53:57.486Z,11.80
2019-03-01T22:56:24.584Z,6.92
2019-03-01T22:58:51.914Z,6.22
2019-03-01T23:01:32.667Z,5.92
2019-03-01T23:04:01.042Z,12.28
2019-03-01T23:06:28.827Z,10.70
2019-03-01T23:08:56.146Z,8.40
2019-03-01T23:11:23.525Z,7.87
2019-03-01T23:13:52.763Z,8.50
2019-03-01T23:16:19.734Z,12.80
2019-03-01T23:18:56.382Z,9.48
2019-03-01T23:21:18.224Z,9.35
2019-03-01T23:23:48.323Z,9.18
2019-03-01T23:26:18.646Z,5.15
2019-03-01T23:28:44.726Z,9.33
2019-03-01T23:31:12.895Z,8.83
2019-03-01T23:33:39.888Z,8.08
2019-03-01T23:36:07.011Z,9.63
2019-03-01T23:38:34.115Z,12.68
2019-03-01T23:41:01.198Z,8.03
2019-03-01T23:43:30.816Z,9.43
2019-03-01T23:45:57.184Z,12.88
2019-03-01T23:48:24.503Z,9.90
2019-03-01T23:50:51.504Z,9.70
2019-03-01T23:53:18.539Z,12.63
2019-03-01T23:55:46.204Z,10.70
2019-03-01T23:58:15.878Z,12.93
